• Join FlightAware (Why Join?)
  • Login
  • US Flag 
10:22PM EDT


 

Airport Tracker/Info


-or-


 

Live Flight TrackerFlight Track Log ✈ JBU892 ✈ 19-Jun-2013 ✈ MDSD / SDQ - KBOS

Flight Track Log - Related Links

Times and Time Zones

All times are in EDT time to prevent confusion due to time zone crossing. See the JBU892 flight status page for this flight to view local times or setup timezone preferences in your user account.

Time Position Orientation Groundspeed Altitude Reporting Facility
EDT Latitude Longitude Course Direction KTS MPH feet Rate Location/Type
04:43AM 19.0428 -69.6832 359° North  Level FlightAware Approximate
04:44AM 19.1461 -69.6907 356° North  Level FlightAware Approximate
04:45AM 19.2624 -69.6997 356° North  Level FlightAware Approximate
04:46AM 19.3785 -69.7102 355° North  Level FlightAware Approximate
04:46AM 18.9878 -69.8797 327° Northwest 452 520 15,400  Level Miami Center
04:47AM 19.4877 -69.7423 327° Northwest  Level FlightAware Approximate
04:47AM 19.0850 -69.9144 341° North 419 482 17,400  Level Miami Center
04:48AM 19.5858 -69.8091 327° Northwest  Level FlightAware Approximate
04:48AM 19.1886 -69.9511 342° North 396 456 19,300  Level Miami Center
04:49AM 19.6839 -69.8760 327° Northwest  Level FlightAware Approximate
04:49AM 19.2942 -69.9853 343° North 396 456 20,800  Level Miami Center
04:50AM 19.7820 -69.9430 327° Northwest  Level FlightAware Approximate
04:50AM 19.4058 -70.0194 344° North 396 456 22,300  Level Miami Center
04:51AM 19.8800 -70.0101 327° Northwest  Level FlightAware Approximate
04:51AM 19.5153 -70.0469 347° North 402 463 23,600  Level Miami Center
04:52AM 19.6292 -70.0328 North 408 470 24,900 1,140 Climbing Miami Center
04:53AM 19.7531 -70.0069 11° North 420 483 25,900 960 Climbing Miami Center
04:54AM 19.8731 -69.9900 North 433 498 26,900 960 Climbing Miami Center
04:55AM 19.9989 -69.9664 10° North 444 511 27,900 1,020 Climbing Miami Center
04:56AM 20.1253 -69.9469 North 450 518 29,000 1,080 Climbing Miami Center
04:57AM 20.2514 -69.9250 North 455 524 30,100 1,080 Climbing Miami Center
04:58AM 20.3772 -69.9033 North 461 531 31,200 1,020 Climbing Miami Center
04:59AM 20.5033 -69.8792 10° North 461 531 32,200 1,020 Climbing Miami Center
05:00AM 20.6272 -69.8575 North 461 531 33,300 900 Climbing Miami Center
05:01AM 20.7536 -69.8378 North 461 531 34,000 300 Climbing Miami Center
05:02AM 20.8733 -69.8161 10° North 456 525 34,000  Level Miami Center
05:03AM 20.9975 -69.7942 North 451 519 34,000  Level Miami Center
05:04AM 21.1194 -69.7722 10° North 445 512 34,000 240 Level Miami Center
05:05AM 21.2411 -69.7503 10° North 445 512 34,500 600 Climbing Miami Center
05:06AM 21.3611 -69.7306 North 445 512 35,300 720 Climbing Miami Center
05:07AM 21.4789 -69.7067 11° North 437 503 36,000 300 Climbing Miami Center
05:08AM 21.6031 -69.6889 North 437 503 36,000  Level Miami Center
05:09AM 21.7250 -69.6667 10° North 437 503 36,000  Level Miami Center
05:10AM 21.8408 -69.6469 North 437 503 36,000  Level Miami Center
05:11AM 21.9606 -69.6247 10° North 430 495 36,000  Level Miami Center
05:12AM 22.0806 -69.6050 North 430 495 36,000  Level Miami Center
05:13AM 22.2028 -69.5847 North 430 495 36,000  Level Miami Center
05:14AM 22.3206 -69.5647 North 430 495 36,000  Level Miami Center
05:15AM 22.4406 -69.5447 North 430 495 36,000  Level Miami Center
05:16AM 22.5583 -69.5222 10° North 430 495 36,000  Level Miami Center
05:17AM 22.6761 -69.5044 North 425 489 36,000  Level Miami Center
05:18AM 22.7919 -69.4822 10° North 425 489 36,000  Level Miami Center
05:19AM 22.9119 -69.4617 North 425 489 36,000  Level Miami Center
05:20AM 23.0253 -69.4372 11° North 425 489 36,000  Level Miami Center
05:21AM 23.1475 -69.4211 North 425 489 36,000  Level Miami Center
05:22AM 23.2631 -69.3964 11° North 425 489 36,000  Level Miami Center
05:23AM 23.3831 -69.3781 North 427 491 36,000  Level Miami Center
05:24AM 23.4989 -69.3556 10° North 427 491 36,000  Level Miami Center
05:25AM 23.6186 -69.3325 10° North 432 497 36,000  Level Miami Center
05:26AM 23.7386 -69.3164 North 425 489 36,000  Level Miami Center
05:27AM 23.8611 -69.3022 North 425 489 36,000  Level Miami Center
05:28AM 23.9786 -69.2747 12° North 425 489 36,000  Level Miami Center
05:29AM 24.0961 -69.2517 10° North 425 489 36,000  Level Miami Center
05:30AM 24.2161 -69.2308 North 425 489 36,000  Level Miami Center
05:31AM 24.3339 -69.2075 10° North 425 489 36,000  Level Miami Center
05:32AM 24.4539 -69.1889 North 425 489 36,000  Level Miami Center
05:33AM 24.5717 -69.1678 North 430 495 36,000  Level Miami Center
05:34AM 24.6872 -69.1447 10° North 425 489 36,000  Level Miami Center
05:35AM 24.8072 -69.1281 North 425 489 36,000  Level Miami Center
05:36AM 24.9247 -69.1022 11° North 425 489 36,000  Level Miami Center
05:37AM 25.0417 -69.1017 360° North 425 489 36,000  Level Miami Center
05:37AM 25.0000 -69.1000 349° North 419 482 36,000  Level New York Oceanic (ODAPS)
05:45AM 26.0573 -69.3195 349° North 419 482 36,000  Level FlightAware Transoceanic
05:46AM 26.1747 -69.3441 349° North 419 482 36,000  Level FlightAware Transoceanic
05:47AM 26.2922 -69.3688 349° North 419 482 36,000  Level FlightAware Transoceanic
05:48AM 26.4096 -69.3935 349° North 419 482 36,000  Level FlightAware Transoceanic
05:49AM 26.5271 -69.4183 349° North 419 482 36,000  Level FlightAware Transoceanic
05:50AM 26.6445 -69.4431 349° North 419 482 36,000  Level FlightAware Transoceanic
05:51AM 26.7619 -69.4680 349° North 419 482 36,000  Level FlightAware Transoceanic
05:52AM 26.8794 -69.4929 349° North 419 482 36,000  Level FlightAware Transoceanic
05:52AM 26.7167 -69.4500 349° North 432 497 36,000  Level New York Oceanic (ODAPS)
05:53AM 26.9968 -69.5179 349° North 419 482 36,000  Level FlightAware Transoceanic
05:54AM 27.1142 -69.5429 349° North 419 482 36,000  Level FlightAware Transoceanic
05:55AM 27.2316 -69.5680 349° North 419 482 36,000  Level FlightAware Transoceanic
05:56AM 27.3490 -69.5931 349° North 419 482 36,000  Level FlightAware Transoceanic
05:57AM 27.4664 -69.6183 349° North 419 482 36,000  Level FlightAware Transoceanic
05:58AM 27.5488 -69.6295 349° North 432 497 36,000  Level FlightAware Transoceanic
05:59AM 27.6677 -69.6554 349° North 432 497 36,000  Level FlightAware Transoceanic
06:00AM 27.7865 -69.6813 349° North 432 497 36,000  Level FlightAware Transoceanic
06:01AM 27.9054 -69.7073 349° North 432 497 36,000  Level FlightAware Transoceanic
06:02AM 28.0242 -69.7333 349° North 432 497 36,000  Level FlightAware Transoceanic
06:03AM 28.1430 -69.7594 349° North 432 497 36,000  Level FlightAware Transoceanic
06:04AM 28.2619 -69.7856 349° North 432 497 36,000  Level FlightAware Transoceanic
06:05AM 28.3807 -69.8118 349° North 432 497 36,000  Level FlightAware Transoceanic
06:06AM 28.4995 -69.8380 349° North 432 497 36,000  Level FlightAware Transoceanic
06:07AM 28.6183 -69.8644 349° North 432 497 36,000  Level FlightAware Transoceanic
06:08AM 28.7372 -69.8907 349° North 432 497 36,000  Level FlightAware Transoceanic
06:09AM 28.8560 -69.9172 349° North 432 497 36,000  Level FlightAware Transoceanic
06:10AM 28.9748 -69.9437 349° North 432 497 36,000  Level FlightAware Transoceanic
06:11AM 29.0936 -69.9703 349° North 432 497 36,000  Level FlightAware Transoceanic
06:12AM 29.2124 -69.9969 349° North 432 497 36,000  Level FlightAware Transoceanic
06:13AM 29.3312 -70.0236 349° North 432 497 36,000  Level FlightAware Transoceanic
06:14AM 29.4499 -70.0503 349° North 432 497 36,000  Level FlightAware Transoceanic
06:15AM 29.5687 -70.0772 349° North 432 497 36,000  Level FlightAware Transoceanic
06:16AM 29.6875 -70.1040 349° North 432 497 36,000  Level FlightAware Transoceanic
06:17AM 29.8062 -70.1310 349° North 432 497 36,000  Level FlightAware Transoceanic
06:18AM 29.9250 -70.1580 349° North 432 497 36,000  Level FlightAware Transoceanic
06:19AM 30.0438 -70.1851 349° North 432 497 36,000  Level FlightAware Transoceanic
06:20AM 30.1625 -70.2122 349° North 432 497 36,000  Level FlightAware Transoceanic
06:21AM 30.2813 -70.2394 349° North 432 497 36,000  Level FlightAware Transoceanic
06:22AM 30.4000 -70.2667 349° North 432 497 36,000  Level FlightAware Transoceanic
06:23AM 30.5212 -70.2943 349° North 432 497 36,000  Level FlightAware Transoceanic
06:24AM 30.6425 -70.3220 349° North 432 497 36,000  Level FlightAware Transoceanic
06:25AM 30.7637 -70.3497 349° North 432 497 36,000  Level FlightAware Transoceanic
06:25AM 30.4000 -70.2667 349° North 444 511 36,000  Level New York Oceanic (ODAPS)
06:26AM 30.8849 -70.3775 349° North 432 497 36,000  Level FlightAware Transoceanic
06:27AM 31.0061 -70.4054 349° North 432 497 36,000  Level FlightAware Transoceanic
06:28AM 31.1273 -70.4333 349° North 432 497 36,000  Level FlightAware Transoceanic
06:29AM 31.2486 -70.4614 349° North 432 497 36,000  Level FlightAware Transoceanic
06:30AM 31.3698 -70.4895 349° North 432 497 36,000  Level FlightAware Transoceanic
06:31AM 31.4909 -70.5176 349° North 432 497 36,000  Level FlightAware Transoceanic
06:32AM 31.6121 -70.5459 349° North 444 511 36,000  Level FlightAware Transoceanic
06:33AM 31.7333 -70.5742 349° North 444 511 36,000  Level FlightAware Transoceanic
06:34AM 31.8545 -70.6026 349° North 444 511 36,000  Level FlightAware Transoceanic
06:35AM 31.9757 -70.6311 349° North 444 511 36,000  Level FlightAware Transoceanic
06:36AM 32.0968 -70.6596 349° North 444 511 36,000  Level FlightAware Transoceanic
06:37AM 32.2180 -70.6882 349° North 444 511 36,000  Level FlightAware Transoceanic
06:38AM 32.3391 -70.7169 349° North 444 511 36,000  Level FlightAware Transoceanic
06:39AM 32.4603 -70.7457 349° North 444 511 36,000  Level FlightAware Transoceanic
06:40AM 32.5814 -70.7746 349° North 444 511 36,000  Level FlightAware Transoceanic
06:41AM 32.7025 -70.8035 349° North 444 511 36,000  Level FlightAware Transoceanic
06:42AM 32.8237 -70.8325 349° North 444 511 36,000  Level FlightAware Transoceanic
06:43AM 32.9448 -70.8616 349° North 444 511 36,000  Level FlightAware Transoceanic
06:44AM 33.0659 -70.8907 349° North 444 511 36,000  Level FlightAware Transoceanic
06:45AM 33.1870 -70.9200 349° North 444 511 36,000  Level FlightAware Transoceanic
06:46AM 33.3081 -70.9493 349° North 444 511 36,000  Level FlightAware Transoceanic
06:47AM 33.4292 -70.9787 349° North 444 511 36,000  Level FlightAware Transoceanic
06:48AM 33.5502 -71.0082 349° North 444 511 36,000  Level FlightAware Transoceanic
06:49AM 33.6713 -71.0378 348° North 444 511 36,000  Level FlightAware Transoceanic
06:50AM 33.7924 -71.0674 348° North 444 511 36,000  Level FlightAware Transoceanic
06:51AM 33.9134 -71.0972 348° North 444 511 36,000  Level FlightAware Transoceanic
06:52AM 34.0345 -71.1270 348° North 444 511 36,000  Level FlightAware Transoceanic
06:53AM 34.1555 -71.1569 348° North 444 511 36,000  Level FlightAware Transoceanic
06:54AM 34.2766 -71.1869 348° North 444 511 36,000  Level FlightAware Transoceanic
06:55AM 34.3976 -71.2170 348° North 444 511 36,000  Level FlightAware Transoceanic
06:56AM 34.5186 -71.2472 348° North 444 511 36,000  Level FlightAware Transoceanic
06:57AM 34.6396 -71.2774 348° North 444 511 36,000  Level FlightAware Transoceanic
06:58AM 34.7607 -71.3078 348° North 444 511 36,000  Level FlightAware Transoceanic
06:59AM 34.8817 -71.3382 348° North 444 511 36,000  Level FlightAware Transoceanic
07:00AM 35.0027 -71.3687 348° North 444 511 36,000  Level FlightAware Transoceanic
07:01AM 35.1236 -71.3993 348° North 444 511 36,000  Level FlightAware Transoceanic
07:02AM 35.2446 -71.4301 348° North 444 511 36,000  Level FlightAware Transoceanic
07:03AM 35.3656 -71.4608 348° North 444 511 36,000  Level FlightAware Transoceanic
07:04AM 35.4865 -71.4917 348° North 444 511 36,000  Level FlightAware Transoceanic
07:05AM 35.6075 -71.5227 348° North 444 511 36,000  Level FlightAware Transoceanic
07:06AM 35.7285 -71.5538 348° North 444 511 36,000  Level FlightAware Transoceanic
07:07AM 35.8494 -71.5850 348° North 444 511 36,000  Level FlightAware Transoceanic
07:08AM 35.9703 -71.6162 348° North 444 511 36,000  Level FlightAware Transoceanic
07:09AM 36.0912 -71.6476 348° North 444 511 36,000  Level FlightAware Transoceanic
07:10AM 36.2122 -71.6791 348° North 444 511 36,000  Level FlightAware Transoceanic
07:11AM 36.3331 -71.7106 348° North 444 511 36,000 -120 Level FlightAware Transoceanic
07:11AM 36.2819 -71.6497 348° North 449 517 35,900  Descending New York Center
07:12AM 36.4540 -71.7423 348° North 444 511 36,000 60 Climbing FlightAware Transoceanic
07:12AM 36.4069 -71.6797 349° North 448 516 36,000  Level New York Center
07:13AM 36.5748 -71.7740 348° North 444 511 36,000  Level FlightAware Transoceanic
07:13AM 36.5236 -71.7122 347° North 448 516 36,000  Level New York Center
07:14AM 36.6957 -71.8059 348° North 444 511 36,000  Level FlightAware Transoceanic
07:14AM 36.6483 -71.7447 348° North 448 516 36,000  Level New York Center
07:15AM 36.8166 -71.8378 348° North 444 511 36,000  Level FlightAware Transoceanic
07:15AM 36.7711 -71.7881 344° North 439 505 36,000  Level New York Center
07:16AM 36.9375 -71.8699 348° North 444 511 36,000  Level FlightAware Transoceanic
07:16AM 36.8811 -71.8517 335° Northwest 439 505 36,000 -120 Level New York Center
07:17AM 36.9978 -71.8822 348° North 444 511 35,900 -60 Descending New York Center
07:18AM 37.1311 -71.8842 359° North 444 511 35,900  Level New York Center
07:19AM 37.2606 -71.8889 358° North 450 518 35,900  Level New York Center
07:20AM 37.3836 -71.8933 358° North 450 518 35,900  Level New York Center
07:21AM 37.5147 -71.8981 358° North 450 518 36,000  Climbing New York Center
07:22AM 37.6150 -71.8994 359° North 456 525 36,000  Level New York Center
07:23AM 37.7569 -71.8939 North 441 507 36,000 -60 Level New York Center
07:24AM 37.8842 -71.8958 359° North 441 507 35,900  Descending New York Center
07:25AM 38.0133 -71.9058 357° North 451 519 36,000  Climbing New York Center
07:26AM 38.1383 -71.9158 356° North 451 519 36,000  Level New York Center
07:27AM 38.2675 -71.9178 359° North 457 526 36,000 -60 Level New York Center
07:28AM 38.3947 -71.9225 358° North 457 526 35,900 -60 Descending New York Center
07:29AM 38.5200 -71.9219 360° North 457 526 35,900  Level New York Center
07:30AM 38.6450 -71.9242 359° North 457 526 35,900  Level New York Center
07:31AM 38.7700 -71.9289 358° North 457 526 36,000  Climbing New York Center
07:32AM 38.8994 -71.9283 360° North 457 526 36,000  Level New York Center
07:33AM 39.0244 -71.9303 359° North 457 526 36,000  Level New York Center
07:34AM 39.1517 -71.9378 357° North 457 526 36,000  Level New York Center
07:36AM 39.3758 -71.9436 359° North 453 521 36,000 -60 Level Boston Center
07:37AM 39.5050 -71.9481 358° North 453 521 35,900 -600 Descending Boston Center
07:38AM 39.6342 -71.9472 360° North 460 529 34,900 -1,020 Descending Boston Center
07:39AM 39.7656 -71.9517 359° North 460 529 33,900 -960 Descending Boston Center
07:40AM 39.9008 -71.9533 359° North 467 537 33,000 -960 Descending Boston Center
07:41AM 40.0364 -71.9578 359° North 478 550 32,000 -1,020 Descending Boston Center
07:42AM 40.1697 -71.9622 359° North 478 550 31,000 -1,020 Descending Boston Center
07:43AM 40.3008 -71.9586 North 471 542 30,000 -1,020 Descending Boston Center
07:44AM 40.4361 -71.9303 North 477 549 29,000 -1,260 Descending Boston Center
07:45AM 40.5672 -71.9047 North 482 555 27,500 -1,680 Descending Boston Center
07:46AM 40.6942 -71.8789 North 476 548 25,700 -2,520 Descending Boston Center
07:47AM 40.8358 -71.8614 North 475 547 22,500 -2,520 Descending Boston Center
07:48AM 40.9544 -71.8356 North 450 518 20,700 -1,980 Descending Boston Center
07:49AM 41.0647 -71.8069 11° North 414 476 18,600 -1,800 Descending Boston Center
07:50AM 41.1711 -71.7839 North 389 448 17,100 -840 Descending Boston Center
07:51AM 41.2667 -71.7664 North 384 442 17,000 -300 Descending Boston Center
07:52AM 41.3811 -71.7403 10° North 384 442 16,600 -1,380 Descending Boston Center
07:53AM 41.4747 -71.7086 14° North 384 442 14,300 -1,800 Descending Boston Center
07:54AM 41.5636 -71.6106 40° Northeast 373 429 13,000 -1,140 Descending Boston Center
07:55AM 41.6297 -71.5347 41° Northeast 361 415 12,100 -900 Descending Boston Center
07:56AM 41.7061 -71.4503 40° Northeast 330 380 11,200 -600 Descending Boston Center
07:57AM 41.7639 -71.3686 46° Northeast 295 339 11,000 -120 Descending Boston Center
07:58AM 41.8192 -71.2814 50° Northeast 295 339 11,000 -300 Level Boston Center
07:59AM 41.8917 -71.2353 25° Northeast 282 325 10,400 -1,380 Descending Boston Center
08:00AM 41.9683 -71.1975 20° North 282 325 8,300 -1,980 Descending Boston Center
08:01AM 42.0431 -71.1653 18° North 288 331 6,500 -1,560 Descending Boston Center
08:02AM 42.1167 -71.1167 26° Northeast 237 273 5,000 -1,320 Descending KA90
08:03AM 42.1667 -71.1000 14° North 216 249 3,700 -1,140 Descending KA90
08:04AM 42.2167 -71.0667 26° Northeast 186 214 2,800 -960 Descending KA90
08:05AM 42.2667 -71.0500 14° North 167 192 1,800 -900 Descending KA90
08:06AM 42.3000 -71.0333 20° North 131 151 1,000 -720 Descending KA90
08:07AM 42.3333 -71.0167 20° North 129 148 400 3,660 Descending KA90
08:09AM 42.3933 -70.9950 15° North 128 147 11,000 6,120 Climbing Boston Center